createdAt,value
2022-11-05T00:00:37.849Z,64.17
2022-11-05T00:03:23.543Z,302.23
2022-11-05T00:06:12.484Z,100.77
2022-11-05T00:09:00.361Z,170.10
2022-11-05T00:11:46.123Z,117.37
2022-11-05T00:14:32.515Z,126.90
2022-11-05T00:16:59.385Z,107.70
2022-11-05T00:19:26.233Z,116.83
2022-11-05T00:22:11.393Z,113.40
2022-11-05T00:24:57.071Z,115.40
2022-11-05T00:27:23.888Z,101.13
2022-11-05T00:29:50.661Z,87.80
2022-11-05T00:32:17.473Z,54.97
2022-11-05T00:34:44.344Z,89.13
2022-11-05T00:37:11.129Z,84.87
2022-11-05T00:39:37.940Z,65.43
2022-11-05T00:42:23.454Z,100.00
2022-11-05T00:45:02.576Z,87.50
2022-11-05T00:47:50.121Z,82.57
2022-11-05T00:50:18.951Z,89.03
2022-11-05T00:52:57.750Z,76.20
2022-11-05T00:55:34.610Z,74.53
2022-11-05T00:58:03.811Z,84.40
2022-11-05T01:00:33.293Z,74.10
2022-11-05T01:03:04.642Z,69.83
2022-11-05T01:05:33.895Z,75.00
2022-11-05T01:08:01.722Z,98.07
2022-11-05T01:10:29.314Z,90.53
2022-11-05T01:12:56.470Z,62.27
2022-11-05T01:15:23.558Z,88.40
2022-11-05T01:17:52.305Z,58.80
2022-11-05T01:20:19.197Z,67.50
2022-11-05T01:22:45.998Z,76.00
2022-11-05T01:25:12.804Z,94.30
2022-11-05T01:27:39.933Z,68.50
2022-11-05T01:30:09.149Z,67.43
2022-11-05T01:32:37.433Z,50.57
2022-11-05T01:35:08.115Z,74.60
2022-11-05T01:37:36.048Z,80.23
2022-11-05T01:40:03.902Z,75.17
2022-11-05T01:42:34.360Z,64.17
2022-11-05T01:45:07.162Z,71.93
2022-11-05T01:47:45.561Z,90.07
2022-11-05T01:51:02.525Z,65.80
2022-11-05T01:53:56.909Z,90.80
2022-11-05T01:56:36.944Z,62.43
2022-11-05T01:59:18.120Z,73.67
2022-11-05T02:01:45.431Z,138.53
2022-11-05T02:04:21.013Z,279.47
2022-11-05T02:06:47.887Z,439.63
2022-11-05T02:09:29.464Z,222.87
2022-11-05T02:11:57.110Z,108.57
2022-11-05T02:14:24.207Z,106.00
2022-11-05T02:17:23.799Z,159.23
2022-11-05T02:20:10.120Z,160.70
2022-11-05T02:23:17.591Z,106.60
2022-11-05T02:26:20.786Z,77.23
2022-11-05T02:29:24.635Z,235.67
2022-11-05T02:32:17.728Z,142.20
2022-11-05T02:35:11.454Z,199.77
2022-11-05T02:37:56.795Z,103.90
2022-11-05T02:40:59.564Z,172.60
2022-11-05T02:43:47.769Z,168.37
2022-11-05T02:46:43.686Z,217.40
2022-11-05T02:49:34.931Z,186.77
2022-11-05T02:52:46.426Z,115.40
2022-11-05T02:55:26.253Z,68.90
2022-11-05T02:57:53.059Z,56.87
2022-11-05T03:00:49.681Z,131.90
2022-11-05T03:03:36.706Z,98.17
2022-11-05T03:06:47.593Z,94.97
2022-11-05T03:09:38.839Z,80.20
2022-11-05T03:12:34.836Z,77.60
2022-11-05T03:15:25.811Z,111.77
2022-11-05T03:18:30.364Z,70.43
2022-11-05T03:21:22.932Z,76.47
2022-11-05T03:24:03.606Z,89.10
2022-11-05T03:26:47.015Z,105.43
2022-11-05T03:29:22.569Z,112.63
2022-11-05T03:31:53.997Z,110.60
2022-11-05T03:34:31.219Z,111.87
2022-11-05T03:37:00.791Z,112.93
2022-11-05T03:39:37.114Z,95.20
2022-11-05T03:42:08.736Z,107.57
2022-11-05T03:44:40.894Z,96.23
2022-11-05T03:47:15.246Z,123.30
2022-11-05T03:50:12.820Z,100.83
2022-11-05T03:52:56.184Z,103.93
2022-11-05T03:55:31.171Z,111.73
2022-11-05T03:57:59.514Z,115.27
2022-11-05T04:00:26.338Z,109.67
2022-11-05T04:02:53.219Z,108.77
2022-11-05T04:05:20.157Z,111.27
2022-11-05T04:08:08.715Z,129.20
2022-11-05T04:10:56.633Z,111.33
2022-11-05T04:13:26.410Z,89.37
2022-11-05T04:16:14.324Z,103.27
2022-11-05T04:18:42.454Z,106.90
2022-11-05T04:21:29.058Z,104.40
2022-11-05T04:24:08.532Z,105.80
2022-11-05T04:26:47.430Z,110.20
2022-11-05T04:29:32.878Z,85.43
2022-11-05T04:31:59.658Z,75.10
2022-11-05T04:34:26.478Z,94.03
2022-11-05T04:36:53.630Z,93.80
2022-11-05T04:39:21.527Z,95.87
2022-11-05T04:41:48.740Z,95.97
2022-11-05T04:44:16.766Z,99.57
2022-11-05T04:46:43.771Z,90.87
2022-11-05T04:49:10.710Z,109.77
2022-11-05T04:51:37.498Z,120.97
2022-11-05T04:54:04.441Z,101.07
2022-11-05T04:56:31.313Z,104.27
2022-11-05T04:58:58.109Z,104.17
2022-11-05T05:01:25.550Z,101.43
2022-11-05T05:03:54.531Z,134.33
2022-11-05T05:06:22.508Z,121.27
2022-11-05T05:08:51.500Z,108.97
2022-11-05T05:11:21.635Z,109.80
2022-11-05T05:13:49.801Z,104.90
2022-11-05T05:16:27.580Z,123.33
2022-11-05T05:18:55.070Z,125.33
2022-11-05T05:21:42.163Z,134.57
2022-11-05T05:24:13.358Z,124.80
2022-11-05T05:26:44.991Z,131.93
2022-11-05T05:29:12.501Z,150.67
2022-11-05T05:31:40.158Z,144.07
2022-11-05T05:34:10.691Z,207.23
2022-11-05T05:36:37.602Z,156.50
2022-11-05T05:39:08.556Z,161.23
2022-11-05T05:41:35.383Z,153.77
2022-11-05T05:44:02.240Z,147.50
2022-11-05T05:46:29.084Z,157.43
2022-11-05T05:48:55.999Z,182.60
2022-11-05T05:51:22.834Z,148.67
2022-11-05T05:53:49.988Z,130.97
2022-11-05T05:56:20.419Z,148.60
2022-11-05T05:58:47.897Z,197.13
2022-11-05T06:01:19.318Z,165.50
2022-11-05T06:03:47.695Z,134.47
2022-11-05T06:06:19.469Z,138.30
2022-11-05T06:08:46.827Z,143.77
2022-11-05T06:11:13.696Z,132.23
2022-11-05T06:13:40.599Z,122.40
2022-11-05T06:16:09.672Z,127.13
2022-11-05T06:18:37.226Z,126.80
2022-11-05T06:21:10.401Z,129.10
2022-11-05T06:23:40.372Z,108.27
2022-11-05T06:26:14.977Z,117.20
2022-11-05T06:28:42.746Z,106.70
2022-11-05T06:31:11.120Z,130.57
2022-11-05T06:33:38.538Z,115.13
2022-11-05T06:36:07.495Z,119.30
2022-11-05T06:38:36.694Z,125.20
2022-11-05T06:41:09.859Z,115.60
2022-11-05T06:43:38.039Z,119.23
2022-11-05T06:46:05.458Z,125.00
2022-11-05T06:48:32.367Z,133.53
2022-11-05T06:50:59.257Z,154.30
2022-11-05T06:53:26.796Z,117.60
2022-11-05T06:55:53.658Z,128.10
2022-11-05T06:58:20.505Z,132.77
2022-11-05T07:00:47.661Z,159.83
2022-11-05T07:03:15.231Z,127.00
2022-11-05T07:05:48.476Z,124.63
2022-11-05T07:08:16.302Z,128.83
2022-11-05T07:10:43.358Z,107.70
2022-11-05T07:13:10.533Z,81.63
2022-11-05T07:15:38.057Z,81.23
2022-11-05T07:18:07.357Z,68.47
2022-11-05T07:20:34.729Z,70.37
2022-11-05T07:23:12.161Z,67.30
2022-11-05T07:25:40.815Z,78.40
2022-11-05T07:28:08.889Z,70.73
2022-11-05T07:30:36.484Z,81.80
2022-11-05T07:33:03.965Z,83.57
2022-11-05T07:35:30.982Z,66.13
2022-11-05T07:37:57.861Z,65.93
2022-11-05T07:40:27.638Z,82.57
2022-11-05T07:43:00.692Z,64.50
2022-11-05T07:45:30.805Z,72.20
2022-11-05T07:48:00.896Z,67.73
2022-11-05T07:50:32.070Z,97.43
2022-11-05T07:53:13.873Z,78.07
2022-11-05T07:55:42.257Z,65.03
2022-11-05T07:58:10.855Z,70.30
2022-11-05T08:00:38.101Z,71.03
2022-11-05T08:03:18.221Z,57.73
2022-11-05T08:05:47.920Z,46.37
2022-11-05T08:08:18.498Z,42.80
2022-11-05T08:10:45.882Z,50.80
2022-11-05T08:13:14.382Z,44.83
2022-11-05T08:15:42.687Z,48.30
2022-11-05T08:18:14.833Z,42.07
2022-11-05T08:20:43.985Z,41.03
2022-11-05T08:23:11.552Z,50.30
2022-11-05T08:25:39.846Z,48.87
2022-11-05T08:28:11.920Z,50.83
2022-11-05T08:30:38.979Z,44.27
2022-11-05T08:33:10.084Z,47.90
2022-11-05T08:35:38.713Z,47.33
2022-11-05T08:38:08.954Z,46.70
2022-11-05T08:40:37.094Z,50.10
2022-11-05T08:43:07.399Z,54.27
2022-11-05T08:45:38.336Z,54.30
2022-11-05T08:48:15.482Z,57.50
2022-11-05T08:50:44.617Z,55.03
2022-11-05T08:53:12.664Z,57.77
2022-11-05T08:55:40.036Z,48.83
2022-11-05T08:58:17.737Z,55.03
2022-11-05T09:00:48.381Z,56.07
2022-11-05T09:03:16.222Z,52.37
2022-11-05T09:05:43.259Z,57.13
2022-11-05T09:08:18.588Z,52.60
2022-11-05T09:10:47.244Z,59.77
2022-11-05T09:13:18.951Z,60.90
2022-11-05T09:15:50.148Z,57.63
2022-11-05T09:18:18.238Z,62.60
2022-11-05T09:20:45.163Z,57.87
2022-11-05T09:23:15.050Z,59.55
2022-11-05T09:25:42.386Z,65.63
2022-11-05T09:28:18.637Z,56.50
2022-11-05T09:30:50.225Z,71.63
2022-11-05T09:33:22.022Z,69.40
2022-11-05T09:35:48.944Z,65.25
2022-11-05T09:38:15.908Z,54.07
2022-11-05T09:41:08.582Z,65.78
2022-11-05T09:43:48.307Z,57.27
2022-11-05T09:46:23.302Z,56.57
2022-11-05T09:49:06.663Z,56.50
2022-11-05T09:51:36.027Z,43.72
2022-11-05T09:54:05.540Z,45.93
2022-11-05T09:56:38.562Z,46.13
2022-11-05T09:59:19.167Z,42.13
2022-11-05T10:01:47.304Z,34.10
2022-11-05T10:04:20.820Z,43.13
2022-11-05T10:06:59.858Z,39.10
2022-11-05T10:09:45.257Z,39.93
2022-11-05T10:12:30.229Z,35.63
2022-11-05T10:15:28.220Z,31.17
2022-11-05T10:18:32.534Z,28.23
2022-11-05T10:20:59.547Z,28.97
2022-11-05T10:23:28.634Z,24.08
2022-11-05T10:26:00.089Z,30.17
2022-11-05T10:28:32.093Z,28.77
2022-11-05T10:31:06.951Z,23.57
2022-11-05T10:33:48.778Z,21.77
2022-11-05T10:36:28.298Z,19.42
2022-11-05T10:39:17.543Z,20.03
2022-11-05T10:42:14.555Z,17.53
2022-11-05T10:44:58.170Z,25.65
2022-11-05T10:47:45.968Z,24.02
2022-11-05T10:50:25.002Z,22.88
2022-11-05T10:52:58.291Z,17.73
2022-11-05T10:55:36.234Z,18.27
2022-11-05T10:58:27.362Z,18.70
2022-11-05T11:00:54.138Z,14.90
2022-11-05T11:03:43.659Z,20.43
2022-11-05T11:06:31.120Z,19.37
2022-11-05T11:09:08.508Z,13.38
2022-11-05T11:11:42.373Z,15.88
2022-11-05T11:14:12.530Z,15.98
2022-11-05T11:16:45.642Z,18.20
2022-11-05T11:19:21.432Z,14.52
2022-11-05T11:22:09.197Z,14.87
2022-11-05T11:24:45.113Z,14.25
2022-11-05T11:27:18.546Z,16.25
2022-11-05T11:30:01.197Z,11.15
2022-11-05T11:32:36.277Z,12.32
2022-11-05T11:35:05.487Z,13.48
2022-11-05T11:37:41.880Z,14.75
2022-11-05T11:40:23.882Z,12.32
2022-11-05T11:42:59.306Z,11.88
2022-11-05T11:45:44.745Z,13.20
2022-11-05T11:48:21.442Z,15.80
2022-11-05T11:50:49.652Z,12.65
2022-11-05T11:53:26.914Z,11.68
2022-11-05T11:56:21.251Z,9.90
2022-11-05T11:58:53.659Z,11.88
2022-11-05T12:01:51.005Z,14.93
2022-11-05T12:04:46.407Z,10.50
2022-11-05T12:07:48.836Z,13.07
2022-11-05T12:10:34.171Z,8.40
2022-11-05T12:13:42.936Z,8.77
2022-11-05T12:17:01.286Z,7.53
2022-11-05T12:19:49.172Z,9.60
2022-11-05T12:22:26.619Z,9.85
2022-11-05T12:25:15.562Z,9.70
2022-11-05T12:27:59.188Z,6.55
2022-11-05T12:30:34.277Z,8.13
2022-11-05T12:33:23.431Z,5.65
2022-11-05T12:36:08.359Z,5.80
2022-11-05T12:39:16.644Z,5.67
2022-11-05T12:41:55.141Z,11.23
2022-11-05T12:44:28.789Z,8.45
2022-11-05T12:47:36.502Z,7.47
2022-11-05T12:50:45.339Z,6.97
2022-11-05T12:53:38.734Z,7.28
2022-11-05T12:56:34.765Z,6.82
2022-11-05T12:59:27.502Z,5.67
2022-11-05T13:02:20.268Z,7.40
2022-11-05T13:05:03.890Z,7.55
2022-11-05T13:07:38.992Z,6.93
2022-11-05T13:10:21.411Z,7.13
2022-11-05T13:13:21.376Z,8.23
2022-11-05T13:15:58.898Z,4.45
2022-11-05T13:18:48.297Z,4.32
2022-11-05T13:21:17.266Z,4.77
2022-11-05T13:24:17.956Z,6.90
2022-11-05T13:26:54.326Z,5.07
2022-11-05T13:29:32.654Z,7.60
2022-11-05T13:32:29.194Z,6.13
2022-11-05T13:35:01.313Z,6.20
2022-11-05T13:37:57.480Z,10.13
2022-11-05T13:40:59.337Z,4.93
2022-11-05T13:43:45.208Z,5.22
2022-11-05T13:46:43.296Z,6.55
2022-11-05T13:49:43.940Z,5.83
2022-11-05T13:52:25.853Z,5.43
2022-11-05T13:55:49.792Z,8.15
2022-11-05T13:58:41.748Z,5.65
2022-11-05T14:01:13.927Z,6.57
2022-11-05T14:03:51.270Z,6.45
2022-11-05T14:06:29.580Z,4.32
2022-11-05T14:09:03.379Z,5.18
2022-11-05T14:11:41.094Z,6.90
2022-11-05T14:14:18.573Z,5.32
2022-11-05T14:16:54.347Z,7.35
2022-11-05T14:19:29.727Z,6.00
2022-11-05T14:21:58.658Z,4.60
2022-11-05T14:24:40.539Z,7.53
2022-11-05T14:27:08.383Z,8.50
2022-11-05T14:29:41.929Z,5.63
2022-11-05T14:32:44.014Z,6.45
2022-11-05T14:35:16.912Z,7.20
2022-11-05T14:37:58.507Z,10.75
2022-11-05T14:40:38.844Z,4.20
2022-11-05T14:43:25.846Z,7.03
2022-11-05T14:45:55.917Z,7.95
2022-11-05T14:48:25.832Z,5.07
2022-11-05T14:50:52.978Z,5.85
2022-11-05T14:53:39.419Z,6.38
2022-11-05T14:56:11.201Z,7.95
2022-11-05T14:58:43.428Z,7.97
2022-11-05T15:01:33.293Z,5.65
2022-11-05T15:04:31.882Z,6.57
2022-11-05T15:07:04.423Z,6.43
2022-11-05T15:09:42.614Z,4.72
2022-11-05T15:12:45.954Z,6.03
2022-11-05T15:15:31.470Z,8.73
2022-11-05T15:18:17.043Z,10.10
2022-11-05T15:20:48.451Z,10.30
2022-11-05T15:23:20.811Z,9.27
2022-11-05T15:26:13.124Z,12.35
2022-11-05T15:28:56.605Z,8.80
2022-11-05T15:31:43.190Z,7.47
2022-11-05T15:34:26.031Z,8.05
2022-11-05T15:37:01.545Z,11.73
2022-11-05T15:39:29.775Z,9.27
2022-11-05T15:42:01.184Z,7.97
2022-11-05T15:44:30.951Z,10.53
2022-11-05T15:47:17.860Z,10.13
2022-11-05T15:49:50.065Z,10.37
2022-11-05T15:52:21.773Z,9.73
2022-11-05T15:55:06.871Z,9.73
2022-11-05T15:57:37.964Z,10.37
2022-11-05T16:00:16.927Z,10.27
2022-11-05T16:02:52.429Z,11.53
2022-11-05T16:05:20.094Z,11.60
2022-11-05T16:07:48.576Z,10.13
2022-11-05T16:10:28.818Z,10.43
2022-11-05T16:12:55.648Z,11.03
2022-11-05T16:15:32.154Z,11.63
2022-11-05T16:18:00.408Z,12.53
2022-11-05T16:20:36.948Z,10.30
2022-11-05T16:23:23.589Z,10.27
2022-11-05T16:25:51.187Z,11.07
2022-11-05T16:28:29.799Z,10.40
2022-11-05T16:31:00.283Z,7.67
2022-11-05T16:33:38.986Z,9.77
2022-11-05T16:36:08.677Z,8.80
2022-11-05T16:38:35.473Z,11.10
2022-11-05T16:41:02.326Z,11.57
2022-11-05T16:43:29.292Z,10.67
2022-11-05T16:45:59.926Z,12.33
2022-11-05T16:48:27.528Z,17.17
2022-11-05T16:50:54.842Z,11.13
2022-11-05T16:53:21.894Z,11.67
2022-11-05T16:55:49.350Z,12.20
2022-11-05T16:58:21.999Z,10.00
2022-11-05T17:00:52.584Z,11.67
2022-11-05T17:03:19.698Z,10.67
2022-11-05T17:05:47.066Z,12.53
2022-11-05T17:08:14.287Z,10.87
2022-11-05T17:10:41.237Z,10.67
2022-11-05T17:13:12.962Z,13.00
2022-11-05T17:15:39.758Z,11.13
2022-11-05T17:18:06.575Z,11.13
2022-11-05T17:20:40.972Z,14.53
2022-11-05T17:23:11.482Z,14.27
2022-11-05T17:25:41.037Z,12.37
2022-11-05T17:28:09.850Z,13.73
2022-11-05T17:30:40.370Z,14.27
2022-11-05T17:33:12.645Z,14.20
2022-11-05T17:35:41.087Z,11.10
2022-11-05T17:38:09.957Z,11.97
2022-11-05T17:40:38.161Z,11.20
2022-11-05T17:43:05.991Z,14.20
2022-11-05T17:45:33.584Z,12.37
2022-11-05T17:48:03.148Z,16.80
2022-11-05T17:50:30.245Z,14.50
2022-11-05T17:52:57.107Z,13.17
2022-11-05T17:55:23.961Z,14.63
2022-11-05T17:57:52.645Z,18.97
2022-11-05T18:00:23.161Z,14.40
2022-11-05T18:02:52.958Z,12.43
2022-11-05T18:05:22.116Z,13.87
2022-11-05T18:07:49.682Z,13.43
2022-11-05T18:10:17.132Z,16.83
2022-11-05T18:12:44.507Z,19.00
2022-11-05T18:15:12.643Z,16.17
2022-11-05T18:17:40.109Z,14.33
2022-11-05T18:20:12.967Z,16.17
2022-11-05T18:22:44.774Z,15.57
2022-11-05T18:25:13.461Z,14.77
2022-11-05T18:27:41.003Z,15.37
2022-11-05T18:30:10.157Z,17.77
2022-11-05T18:32:37.453Z,20.77
2022-11-05T18:35:04.737Z,15.87
2022-11-05T18:37:31.585Z,17.30
2022-11-05T18:39:58.461Z,13.43
2022-11-05T18:42:25.468Z,18.90
2022-11-05T18:44:52.416Z,15.93
2022-11-05T18:47:19.254Z,18.53
2022-11-05T18:49:46.080Z,17.77
2022-11-05T18:52:13.182Z,20.20
2022-11-05T18:54:40.135Z,18.10
2022-11-05T18:57:07.079Z,14.73
2022-11-05T18:59:39.067Z,16.60
2022-11-05T19:02:08.247Z,16.10
2022-11-05T19:04:36.898Z,15.40
2022-11-05T19:07:05.391Z,18.57
2022-11-05T19:09:34.613Z,18.67
2022-11-05T19:12:02.591Z,15.40
2022-11-05T19:14:30.257Z,19.20
2022-11-05T19:17:00.778Z,17.20
2022-11-05T19:19:28.384Z,15.27
2022-11-05T19:21:55.310Z,16.60
2022-11-05T19:24:22.186Z,17.23
2022-11-05T19:26:49.014Z,18.87
2022-11-05T19:29:16.322Z,15.77
2022-11-05T19:31:43.270Z,18.43
2022-11-05T19:34:10.121Z,19.20
2022-11-05T19:36:37.009Z,17.17
2022-11-05T19:39:09.844Z,17.10
2022-11-05T19:41:37.217Z,17.80
2022-11-05T19:44:04.464Z,18.53
2022-11-05T19:46:33.983Z,17.60
2022-11-05T19:49:01.452Z,20.77
2022-11-05T19:51:32.362Z,18.27
2022-11-05T19:54:01.576Z,21.00
2022-11-05T19:56:34.688Z,16.83
2022-11-05T19:59:03.352Z,20.90
2022-11-05T20:01:30.967Z,17.87
2022-11-05T20:03:59.635Z,20.63
2022-11-05T20:06:34.839Z,19.03
2022-11-05T20:09:22.546Z,20.27
2022-11-05T20:11:54.184Z,21.97
2022-11-05T20:14:21.897Z,19.23
2022-11-05T20:16:49.654Z,21.53
2022-11-05T20:19:20.389Z,18.63
2022-11-05T20:21:47.835Z,19.17
2022-11-05T20:24:25.300Z,24.10
2022-11-05T20:26:56.807Z,21.33
2022-11-05T20:29:29.121Z,23.53
2022-11-05T20:32:02.186Z,25.13
2022-11-05T20:34:30.434Z,22.57
2022-11-05T20:36:57.246Z,22.47
2022-11-05T20:39:24.115Z,22.73
2022-11-05T20:41:51.081Z,21.10
2022-11-05T20:44:17.877Z,21.60
2022-11-05T20:46:44.755Z,22.60
2022-11-05T20:49:11.715Z,21.13
2022-11-05T20:51:38.479Z,26.00
2022-11-05T20:54:05.625Z,24.27
2022-11-05T20:56:35.321Z,28.13
2022-11-05T20:59:02.836Z,20.63
2022-11-05T21:01:33.103Z,25.23
2022-11-05T21:04:00.034Z,22.40
2022-11-05T21:06:31.273Z,23.47
2022-11-05T21:08:58.390Z,23.23
2022-11-05T21:11:25.214Z,25.77
2022-11-05T21:13:52.223Z,23.03
2022-11-05T21:16:20.532Z,20.77
2022-11-05T21:18:47.777Z,22.17
2022-11-05T21:21:18.776Z,25.07
2022-11-05T21:23:46.209Z,21.30
2022-11-05T21:26:16.746Z,21.90
2022-11-05T21:28:44.026Z,21.53
2022-11-05T21:31:11.113Z,21.57
2022-11-05T21:33:38.406Z,20.10
2022-11-05T21:36:11.702Z,24.27
2022-11-05T21:38:40.275Z,23.30
2022-11-05T21:41:09.870Z,23.90
2022-11-05T21:43:39.015Z,25.80
2022-11-05T21:46:06.051Z,26.47
2022-11-05T21:48:33.031Z,22.73
2022-11-05T21:51:18.653Z,25.00
2022-11-05T21:54:04.107Z,24.33
2022-11-05T21:56:49.631Z,20.13
2022-11-05T21:59:39.807Z,23.40
2022-11-05T22:02:09.187Z,19.80
2022-11-05T22:04:40.351Z,22.43
2022-11-05T22:07:10.152Z,20.20
2022-11-05T22:09:37.509Z,18.07
2022-11-05T22:12:05.127Z,21.53
2022-11-05T22:14:32.308Z,18.50
2022-11-05T22:16:59.748Z,20.73
2022-11-05T22:19:27.239Z,22.07
2022-11-05T22:21:54.048Z,18.27
2022-11-05T22:24:21.346Z,21.80
2022-11-05T22:26:48.890Z,20.17
2022-11-05T22:29:16.551Z,18.20
2022-11-05T22:31:44.125Z,23.33
2022-11-05T22:34:12.128Z,16.90
2022-11-05T22:36:39.519Z,19.17
2022-11-05T22:39:06.955Z,18.83
2022-11-05T22:41:34.338Z,17.60
2022-11-05T22:44:03.250Z,19.43
2022-11-05T22:46:30.882Z,16.60
2022-11-05T22:48:58.270Z,17.73
2022-11-05T22:51:29.350Z,16.20
2022-11-05T22:53:56.338Z,15.80
2022-11-05T22:56:28.471Z,19.10
2022-11-05T22:58:55.626Z,20.60
2022-11-05T23:01:23.755Z,19.83
2022-11-05T23:03:54.017Z,20.93
2022-11-05T23:06:44.160Z,19.13
2022-11-05T23:09:49.306Z,17.40
2022-11-05T23:12:30.244Z,16.17
2022-11-05T23:15:00.052Z,16.40
2022-11-05T23:17:47.215Z,15.37
2022-11-05T23:20:40.626Z,15.30
2022-11-05T23:23:38.400Z,13.93
2022-11-05T23:26:25.283Z,16.30
2022-11-05T23:28:52.121Z,15.10
2022-11-05T23:31:37.232Z,13.77
2022-11-05T23:34:04.145Z,15.90
2022-11-05T23:36:49.279Z,16.47
2022-11-05T23:39:16.145Z,15.47
2022-11-05T23:42:01.434Z,13.80
2022-11-05T23:44:46.798Z,15.97
2022-11-05T23:47:32.278Z,16.13
2022-11-05T23:49:59.052Z,9.43
2022-11-05T23:52:25.812Z,16.23
2022-11-05T23:54:52.590Z,16.63
2022-11-05T23:57:19.363Z,13.33
2022-11-05T23:59:46.101Z,14.47
